sensor_id;sensor_type;location;lat;lon;timestamp;P1;durP1;ratioP1;P2;durP2;ratioP2
8230;SDS011;4156;50.908;6.974;2024-01-25T00:01:45;30.33;;;5.73;;
8230;SDS011;4156;50.908;6.974;2024-01-25T00:04:10;23.63;;;5.13;;
8230;SDS011;4156;50.908;6.974;2024-01-25T00:06:36;27.17;;;6.43;;
8230;SDS011;4156;50.908;6.974;2024-01-25T00:09:01;20.43;;;4.87;;
8230;SDS011;4156;50.908;6.974;2024-01-25T00:11:29;21.73;;;5.63;;
8230;SDS011;4156;50.908;6.974;2024-01-25T00:13:56;35.83;;;7.33;;
8230;SDS011;4156;50.908;6.974;2024-01-25T00:16:22;21.17;;;5.67;;
8230;SDS011;4156;50.908;6.974;2024-01-25T00:18:47;20.10;;;6.60;;
8230;SDS011;4156;50.908;6.974;2024-01-25T00:21:13;23.67;;;5.50;;
8230;SDS011;4156;50.908;6.974;2024-01-25T00:23:38;14.17;;;3.87;;
8230;SDS011;4156;50.908;6.974;2024-01-25T00:26:04;33.43;;;6.93;;
8230;SDS011;4156;50.908;6.974;2024-01-25T00:28:29;22.57;;;6.43;;
8230;SDS011;4156;50.908;6.974;2024-01-25T00:30:55;18.97;;;5.23;;
8230;SDS011;4156;50.908;6.974;2024-01-25T00:33:21;28.87;;;6.97;;
8230;SDS011;4156;50.908;6.974;2024-01-25T00:35:46;21.93;;;4.53;;
8230;SDS011;4156;50.908;6.974;2024-01-25T00:38:13;25.47;;;5.87;;
8230;SDS011;4156;50.908;6.974;2024-01-25T00:40:39;22.37;;;5.73;;
8230;SDS011;4156;50.908;6.974;2024-01-25T00:43:05;28.60;;;5.97;;
8230;SDS011;4156;50.908;6.974;2024-01-25T00:45:31;18.50;;;4.97;;
8230;SDS011;4156;50.908;6.974;2024-01-25T00:47:59;18.40;;;4.03;;
8230;SDS011;4156;50.908;6.974;2024-01-25T00:50:25;22.57;;;5.30;;
8230;SDS011;4156;50.908;6.974;2024-01-25T00:52:51;21.73;;;4.90;;
8230;SDS011;4156;50.908;6.974;2024-01-25T00:55:17;19.77;;;5.23;;
8230;SDS011;4156;50.908;6.974;2024-01-25T00:57:43;28.43;;;6.37;;
8230;SDS011;4156;50.908;6.974;2024-01-25T01:00:09;30.43;;;6.10;;
8230;SDS011;4156;50.908;6.974;2024-01-25T01:02:39;24.47;;;5.70;;
8230;SDS011;4156;50.908;6.974;2024-01-25T01:05:07;27.43;;;6.10;;
8230;SDS011;4156;50.908;6.974;2024-01-25T01:07:33;13.50;;;4.00;;
8230;SDS011;4156;50.908;6.974;2024-01-25T01:09:59;24.03;;;5.87;;
8230;SDS011;4156;50.908;6.974;2024-01-25T01:12:24;16.90;;;4.57;;
8230;SDS011;4156;50.908;6.974;2024-01-25T01:14:50;23.67;;;5.37;;
8230;SDS011;4156;50.908;6.974;2024-01-25T01:17:15;29.93;;;6.13;;
8230;SDS011;4156;50.908;6.974;2024-01-25T01:19:43;26.83;;;7.47;;
8230;SDS011;4156;50.908;6.974;2024-01-25T01:22:08;23.70;;;5.63;;
8230;SDS011;4156;50.908;6.974;2024-01-25T01:24:34;38.00;;;6.77;;
8230;SDS011;4156;50.908;6.974;2024-01-25T01:27:00;25.87;;;5.43;;
8230;SDS011;4156;50.908;6.974;2024-01-25T01:29:25;23.67;;;5.90;;
8230;SDS011;4156;50.908;6.974;2024-01-25T01:31:51;21.47;;;5.57;;
8230;SDS011;4156;50.908;6.974;2024-01-25T01:34:16;23.17;;;5.53;;
8230;SDS011;4156;50.908;6.974;2024-01-25T01:36:43;24.47;;;6.30;;
8230;SDS011;4156;50.908;6.974;2024-01-25T01:39:08;30.43;;;6.33;;
8230;SDS011;4156;50.908;6.974;2024-01-25T01:41:34;34.40;;;6.13;;
8230;SDS011;4156;50.908;6.974;2024-01-25T01:44:00;22.33;;;5.37;;
8230;SDS011;4156;50.908;6.974;2024-01-25T01:49:05;18.00;;;4.67;;
8230;SDS011;4156;50.908;6.974;2024-01-25T01:51:32;26.83;;;5.57;;
8230;SDS011;4156;50.908;6.974;2024-01-25T01:53:59;18.97;;;5.67;;
8230;SDS011;4156;50.908;6.974;2024-01-25T01:56:27;25.63;;;7.23;;
8230;SDS011;4156;50.908;6.974;2024-01-25T01:58:59;22.03;;;5.47;;
8230;SDS011;4156;50.908;6.974;2024-01-25T02:01:26;31.10;;;6.57;;
8230;SDS011;4156;50.908;6.974;2024-01-25T02:03:52;21.80;;;5.10;;
8230;SDS011;4156;50.908;6.974;2024-01-25T02:06:18;20.87;;;6.00;;
8230;SDS011;4156;50.908;6.974;2024-01-25T02:08:44;29.07;;;5.50;;
8230;SDS011;4156;50.908;6.974;2024-01-25T02:11:11;24.50;;;5.90;;
8230;SDS011;4156;50.908;6.974;2024-01-25T02:13:37;26.90;;;6.03;;
8230;SDS011;4156;50.908;6.974;2024-01-25T02:16:03;19.60;;;4.70;;
8230;SDS011;4156;50.908;6.974;2024-01-25T02:18:29;24.47;;;5.67;;
8230;SDS011;4156;50.908;6.974;2024-01-25T02:20:55;23.30;;;5.63;;
8230;SDS011;4156;50.908;6.974;2024-01-25T02:23:21;16.27;;;4.67;;
8230;SDS011;4156;50.908;6.974;2024-01-25T02:25:46;23.97;;;4.87;;
8230;SDS011;4156;50.908;6.974;2024-01-25T02:28:12;17.07;;;4.87;;
8230;SDS011;4156;50.908;6.974;2024-01-25T02:30:37;23.90;;;4.93;;
8230;SDS011;4156;50.908;6.974;2024-01-25T02:33:03;16.70;;;5.30;;
8230;SDS011;4156;50.908;6.974;2024-01-25T02:35:29;27.70;;;7.13;;
8230;SDS011;4156;50.908;6.974;2024-01-25T02:37:54;19.90;;;5.93;;
8230;SDS011;4156;50.908;6.974;2024-01-25T02:40:20;24.07;;;5.50;;
8230;SDS011;4156;50.908;6.974;2024-01-25T02:42:45;28.40;;;5.57;;
8230;SDS011;4156;50.908;6.974;2024-01-25T02:45:11;21.90;;;5.63;;
8230;SDS011;4156;50.908;6.974;2024-01-25T02:47:36;24.53;;;5.67;;
8230;SDS011;4156;50.908;6.974;2024-01-25T02:50:02;30.10;;;6.87;;
8230;SDS011;4156;50.908;6.974;2024-01-25T02:52:28;25.33;;;5.93;;
8230;SDS011;4156;50.908;6.974;2024-01-25T02:54:53;23.87;;;5.73;;
8230;SDS011;4156;50.908;6.974;2024-01-25T02:57:19;16.70;;;5.03;;
8230;SDS011;4156;50.908;6.974;2024-01-25T02:59:44;17.47;;;5.20;;
8230;SDS011;4156;50.908;6.974;2024-01-25T03:02:10;28.30;;;6.30;;
8230;SDS011;4156;50.908;6.974;2024-01-25T03:04:35;21.53;;;5.87;;
8230;SDS011;4156;50.908;6.974;2024-01-25T03:07:01;21.27;;;5.33;;
8230;SDS011;4156;50.908;6.974;2024-01-25T03:09:27;20.23;;;5.47;;
8230;SDS011;4156;50.908;6.974;2024-01-25T03:11:53;24.70;;;5.30;;
8230;SDS011;4156;50.908;6.974;2024-01-25T03:14:18;28.47;;;7.00;;
8230;SDS011;4156;50.908;6.974;2024-01-25T03:16:44;32.30;;;7.03;;
8230;SDS011;4156;50.908;6.974;2024-01-25T03:19:10;23.80;;;6.43;;
8230;SDS011;4156;50.908;6.974;2024-01-25T03:21:36;29.80;;;6.20;;
8230;SDS011;4156;50.908;6.974;2024-01-25T03:24:01;27.00;;;6.10;;
8230;SDS011;4156;50.908;6.974;2024-01-25T03:26:27;21.50;;;5.87;;
8230;SDS011;4156;50.908;6.974;2024-01-25T03:28:53;29.30;;;6.40;;
8230;SDS011;4156;50.908;6.974;2024-01-25T03:31:19;15.50;;;4.80;;
8230;SDS011;4156;50.908;6.974;2024-01-25T03:33:44;24.73;;;6.10;;
8230;SDS011;4156;50.908;6.974;2024-01-25T03:36:13;29.37;;;6.00;;
8230;SDS011;4156;50.908;6.974;2024-01-25T03:38:39;23.50;;;5.90;;
8230;SDS011;4156;50.908;6.974;2024-01-25T03:41:04;19.20;;;4.90;;
8230;SDS011;4156;50.908;6.974;2024-01-25T03:43:30;30.00;;;6.60;;
8230;SDS011;4156;50.908;6.974;2024-01-25T03:45:55;26.63;;;5.60;;
8230;SDS011;4156;50.908;6.974;2024-01-25T03:48:21;29.40;;;6.40;;
8230;SDS011;4156;50.908;6.974;2024-01-25T03:50:47;22.57;;;5.53;;
8230;SDS011;4156;50.908;6.974;2024-01-25T03:53:12;32.13;;;6.73;;
8230;SDS011;4156;50.908;6.974;2024-01-25T03:55:38;18.87;;;4.77;;
8230;SDS011;4156;50.908;6.974;2024-01-25T03:58:04;26.00;;;5.77;;
8230;SDS011;4156;50.908;6.974;2024-01-25T04:00:29;26.17;;;6.13;;
8230;SDS011;4156;50.908;6.974;2024-01-25T04:02:55;22.93;;;6.27;;
8230;SDS011;4156;50.908;6.974;2024-01-25T04:05:20;29.07;;;5.20;;
8230;SDS011;4156;50.908;6.974;2024-01-25T04:07:46;35.83;;;6.27;;
8230;SDS011;4156;50.908;6.974;2024-01-25T04:10:11;33.47;;;6.67;;
8230;SDS011;4156;50.908;6.974;2024-01-25T04:12:37;23.07;;;6.67;;
8230;SDS011;4156;50.908;6.974;2024-01-25T04:15:04;30.37;;;6.43;;
8230;SDS011;4156;50.908;6.974;2024-01-25T04:17:30;26.80;;;7.57;;
8230;SDS011;4156;50.908;6.974;2024-01-25T04:19:56;34.77;;;5.70;;
8230;SDS011;4156;50.908;6.974;2024-01-25T04:22:21;33.63;;;6.50;;
8230;SDS011;4156;50.908;6.974;2024-01-25T04:24:47;35.40;;;7.67;;
8230;SDS011;4156;50.908;6.974;2024-01-25T04:27:14;29.70;;;7.00;;
8230;SDS011;4156;50.908;6.974;2024-01-25T04:29:40;23.40;;;5.93;;
8230;SDS011;4156;50.908;6.974;2024-01-25T04:32:09;21.83;;;5.97;;
8230;SDS011;4156;50.908;6.974;2024-01-25T04:34:35;33.03;;;6.83;;
8230;SDS011;4156;50.908;6.974;2024-01-25T04:37:01;32.50;;;8.07;;
8230;SDS011;4156;50.908;6.974;2024-01-25T04:39:26;28.83;;;6.30;;
8230;SDS011;4156;50.908;6.974;2024-01-25T04:41:52;26.70;;;6.17;;
8230;SDS011;4156;50.908;6.974;2024-01-25T04:44:17;28.37;;;5.93;;
8230;SDS011;4156;50.908;6.974;2024-01-25T04:46:43;28.53;;;6.47;;
8230;SDS011;4156;50.908;6.974;2024-01-25T04:49:08;29.30;;;6.17;;
8230;SDS011;4156;50.908;6.974;2024-01-25T04:51:34;30.83;;;7.77;;
8230;SDS011;4156;50.908;6.974;2024-01-25T04:54:00;29.70;;;7.17;;
8230;SDS011;4156;50.908;6.974;2024-01-25T04:56:25;31.70;;;7.47;;
8230;SDS011;4156;50.908;6.974;2024-01-25T04:58:51;31.43;;;6.87;;
8230;SDS011;4156;50.908;6.974;2024-01-25T05:01:16;24.53;;;6.50;;
8230;SDS011;4156;50.908;6.974;2024-01-25T05:03:42;26.53;;;5.87;;
8230;SDS011;4156;50.908;6.974;2024-01-25T05:06:07;25.03;;;5.87;;
8230;SDS011;4156;50.908;6.974;2024-01-25T05:08:33;17.30;;;5.53;;
8230;SDS011;4156;50.908;6.974;2024-01-25T05:10:58;23.80;;;6.30;;
8230;SDS011;4156;50.908;6.974;2024-01-25T05:13:25;28.67;;;7.63;;
8230;SDS011;4156;50.908;6.974;2024-01-25T05:15:50;34.93;;;7.20;;
8230;SDS011;4156;50.908;6.974;2024-01-25T05:18:18;30.70;;;5.87;;
8230;SDS011;4156;50.908;6.974;2024-01-25T05:20:57;41.10;;;6.60;;
8230;SDS011;4156;50.908;6.974;2024-01-25T05:23:23;33.23;;;6.57;;
8230;SDS011;4156;50.908;6.974;2024-01-25T05:25:48;29.67;;;6.23;;
8230;SDS011;4156;50.908;6.974;2024-01-25T05:28:14;33.87;;;7.00;;
8230;SDS011;4156;50.908;6.974;2024-01-25T05:30:39;30.37;;;7.33;;
8230;SDS011;4156;50.908;6.974;2024-01-25T05:33:05;20.07;;;5.50;;
8230;SDS011;4156;50.908;6.974;2024-01-25T05:35:31;31.07;;;8.47;;
8230;SDS011;4156;50.908;6.974;2024-01-25T05:37:59;22.67;;;6.50;;
8230;SDS011;4156;50.908;6.974;2024-01-25T05:40:24;25.03;;;6.30;;
8230;SDS011;4156;50.908;6.974;2024-01-25T05:42:50;21.17;;;5.87;;
8230;SDS011;4156;50.908;6.974;2024-01-25T05:45:16;31.97;;;7.67;;
8230;SDS011;4156;50.908;6.974;2024-01-25T05:47:44;20.93;;;5.23;;
8230;SDS011;4156;50.908;6.974;2024-01-25T05:50:10;27.20;;;6.57;;
8230;SDS011;4156;50.908;6.974;2024-01-25T05:52:36;26.07;;;6.17;;
8230;SDS011;4156;50.908;6.974;2024-01-25T05:55:04;25.93;;;6.70;;
8230;SDS011;4156;50.908;6.974;2024-01-25T05:57:30;31.60;;;7.20;;
8230;SDS011;4156;50.908;6.974;2024-01-25T05:59:57;24.73;;;6.40;;
8230;SDS011;4156;50.908;6.974;2024-01-25T06:02:22;29.93;;;6.10;;
8230;SDS011;4156;50.908;6.974;2024-01-25T06:04:48;30.47;;;6.63;;
8230;SDS011;4156;50.908;6.974;2024-01-25T06:07:13;24.20;;;6.30;;
8230;SDS011;4156;50.908;6.974;2024-01-25T06:09:40;27.67;;;6.13;;
8230;SDS011;4156;50.908;6.974;2024-01-25T06:12:05;28.27;;;6.40;;
8230;SDS011;4156;50.908;6.974;2024-01-25T06:14:31;30.47;;;8.33;;
8230;SDS011;4156;50.908;6.974;2024-01-25T06:16:57;29.43;;;7.23;;
8230;SDS011;4156;50.908;6.974;2024-01-25T06:19:22;22.80;;;6.07;;
8230;SDS011;4156;50.908;6.974;2024-01-25T06:21:48;30.97;;;7.00;;
8230;SDS011;4156;50.908;6.974;2024-01-25T06:24:14;28.27;;;7.10;;
8230;SDS011;4156;50.908;6.974;2024-01-25T06:26:40;29.27;;;5.63;;
8230;SDS011;4156;50.908;6.974;2024-01-25T06:29:05;31.80;;;5.73;;
8230;SDS011;4156;50.908;6.974;2024-01-25T06:31:31;29.03;;;6.70;;
8230;SDS011;4156;50.908;6.974;2024-01-25T06:33:56;32.13;;;6.97;;
8230;SDS011;4156;50.908;6.974;2024-01-25T06:36:22;26.43;;;8.00;;
8230;SDS011;4156;50.908;6.974;2024-01-25T06:38:48;27.50;;;6.83;;
8230;SDS011;4156;50.908;6.974;2024-01-25T06:41:13;29.47;;;6.60;;
8230;SDS011;4156;50.908;6.974;2024-01-25T06:43:41;28.40;;;7.10;;
8230;SDS011;4156;50.908;6.974;2024-01-25T06:46:07;17.83;;;5.77;;
8230;SDS011;4156;50.908;6.974;2024-01-25T06:48:33;23.60;;;6.43;;
8230;SDS011;4156;50.908;6.974;2024-01-25T06:50:59;24.80;;;9.83;;
8230;SDS011;4156;50.908;6.974;2024-01-25T06:53:25;35.17;;;10.50;;
8230;SDS011;4156;50.908;6.974;2024-01-25T06:55:51;34.67;;;10.37;;
8230;SDS011;4156;50.908;6.974;2024-01-25T06:58:17;28.13;;;10.40;;
8230;SDS011;4156;50.908;6.974;2024-01-25T07:00:43;33.53;;;9.17;;
8230;SDS011;4156;50.908;6.974;2024-01-25T07:03:10;31.97;;;9.37;;
8230;SDS011;4156;50.908;6.974;2024-01-25T07:05:35;28.93;;;8.57;;
8230;SDS011;4156;50.908;6.974;2024-01-25T07:08:01;24.30;;;7.07;;
8230;SDS011;4156;50.908;6.974;2024-01-25T07:10:27;24.90;;;5.27;;
8230;SDS011;4156;50.908;6.974;2024-01-25T07:12:53;27.83;;;6.53;;
8230;SDS011;4156;50.908;6.974;2024-01-25T07:15:20;20.83;;;5.90;;
8230;SDS011;4156;50.908;6.974;2024-01-25T07:17:46;20.97;;;6.27;;
8230;SDS011;4156;50.908;6.974;2024-01-25T07:20:12;30.57;;;6.93;;
8230;SDS011;4156;50.908;6.974;2024-01-25T07:22:39;27.63;;;6.50;;
8230;SDS011;4156;50.908;6.974;2024-01-25T07:25:05;25.20;;;6.33;;
8230;SDS011;4156;50.908;6.974;2024-01-25T07:27:31;21.33;;;6.77;;
8230;SDS011;4156;50.908;6.974;2024-01-25T07:29:57;27.33;;;7.30;;
8230;SDS011;4156;50.908;6.974;2024-01-25T07:32:23;36.17;;;7.83;;
8230;SDS011;4156;50.908;6.974;2024-01-25T07:34:50;25.43;;;6.30;;
8230;SDS011;4156;50.908;6.974;2024-01-25T07:37:16;31.23;;;7.40;;
8230;SDS011;4156;50.908;6.974;2024-01-25T07:39:43;30.73;;;6.97;;
8230;SDS011;4156;50.908;6.974;2024-01-25T07:42:09;26.30;;;6.23;;
8230;SDS011;4156;50.908;6.974;2024-01-25T07:44:36;33.97;;;6.10;;
8230;SDS011;4156;50.908;6.974;2024-01-25T07:47:02;24.60;;;7.23;;
8230;SDS011;4156;50.908;6.974;2024-01-25T07:49:28;23.03;;;5.93;;
8230;SDS011;4156;50.908;6.974;2024-01-25T07:51:54;21.40;;;5.97;;
8230;SDS011;4156;50.908;6.974;2024-01-25T07:54:24;30.30;;;7.53;;
8230;SDS011;4156;50.908;6.974;2024-01-25T07:56:50;28.83;;;6.17;;
8230;SDS011;4156;50.908;6.974;2024-01-25T07:59:16;30.63;;;6.67;;
8230;SDS011;4156;50.908;6.974;2024-01-25T08:01:42;22.20;;;6.20;;
8230;SDS011;4156;50.908;6.974;2024-01-25T08:04:08;26.30;;;7.03;;
8230;SDS011;4156;50.908;6.974;2024-01-25T08:06:34;31.70;;;6.73;;
8230;SDS011;4156;50.908;6.974;2024-01-25T08:09:00;26.10;;;7.60;;
8230;SDS011;4156;50.908;6.974;2024-01-25T08:11:27;20.30;;;6.17;;
8230;SDS011;4156;50.908;6.974;2024-01-25T08:13:56;24.23;;;6.63;;
8230;SDS011;4156;50.908;6.974;2024-01-25T08:16:22;28.60;;;7.20;;
8230;SDS011;4156;50.908;6.974;2024-01-25T08:18:48;33.50;;;8.20;;
8230;SDS011;4156;50.908;6.974;2024-01-25T08:21:15;18.20;;;6.53;;
8230;SDS011;4156;50.908;6.974;2024-01-25T08:23:41;31.47;;;7.40;;
8230;SDS011;4156;50.908;6.974;2024-01-25T08:26:07;29.17;;;7.27;;
8230;SDS011;4156;50.908;6.974;2024-01-25T08:28:40;41.00;;;7.87;;
8230;SDS011;4156;50.908;6.974;2024-01-25T08:31:08;22.63;;;6.60;;
8230;SDS011;4156;50.908;6.974;2024-01-25T08:33:34;28.47;;;7.27;;
8230;SDS011;4156;50.908;6.974;2024-01-25T08:36:00;29.33;;;7.50;;
8230;SDS011;4156;50.908;6.974;2024-01-25T08:38:27;23.93;;;6.90;;
8230;SDS011;4156;50.908;6.974;2024-01-25T08:40:53;31.57;;;8.10;;
8230;SDS011;4156;50.908;6.974;2024-01-25T08:43:18;24.67;;;7.00;;
8230;SDS011;4156;50.908;6.974;2024-01-25T08:45:45;36.87;;;7.70;;
8230;SDS011;4156;50.908;6.974;2024-01-25T08:48:11;29.03;;;8.27;;
8230;SDS011;4156;50.908;6.974;2024-01-25T08:50:38;37.80;;;8.83;;
8230;SDS011;4156;50.908;6.974;2024-01-25T08:53:04;25.47;;;7.50;;
8230;SDS011;4156;50.908;6.974;2024-01-25T08:55:30;27.33;;;8.37;;
8230;SDS011;4156;50.908;6.974;2024-01-25T08:57:56;24.60;;;7.33;;
8230;SDS011;4156;50.908;6.974;2024-01-25T09:00:22;32.27;;;7.87;;
8230;SDS011;4156;50.908;6.974;2024-01-25T09:02:48;33.37;;;9.00;;
8230;SDS011;4156;50.908;6.974;2024-01-25T09:05:14;15.93;;;6.40;;
8230;SDS011;4156;50.908;6.974;2024-01-25T09:07:40;34.43;;;10.20;;
8230;SDS011;4156;50.908;6.974;2024-01-25T09:10:07;29.43;;;8.37;;
8230;SDS011;4156;50.908;6.974;2024-01-25T09:12:34;33.03;;;8.40;;
8230;SDS011;4156;50.908;6.974;2024-01-25T09:15:00;31.33;;;8.03;;
8230;SDS011;4156;50.908;6.974;2024-01-25T09:17:26;27.70;;;8.87;;
8230;SDS011;4156;50.908;6.974;2024-01-25T09:19:52;30.50;;;8.10;;
8230;SDS011;4156;50.908;6.974;2024-01-25T09:22:18;29.60;;;8.73;;
8230;SDS011;4156;50.908;6.974;2024-01-25T09:24:47;18.27;;;6.83;;
8230;SDS011;4156;50.908;6.974;2024-01-25T09:27:14;27.13;;;8.23;;
8230;SDS011;4156;50.908;6.974;2024-01-25T09:29:40;29.80;;;9.87;;
8230;SDS011;4156;50.908;6.974;2024-01-25T09:32:07;32.70;;;7.80;;
8230;SDS011;4156;50.908;6.974;2024-01-25T09:34:33;32.33;;;8.07;;
8230;SDS011;4156;50.908;6.974;2024-01-25T09:37:00;25.60;;;7.97;;
8230;SDS011;4156;50.908;6.974;2024-01-25T09:39:28;31.40;;;9.97;;
8230;SDS011;4156;50.908;6.974;2024-01-25T09:41:55;19.57;;;6.43;;
8230;SDS011;4156;50.908;6.974;2024-01-25T09:44:24;29.50;;;8.93;;
8230;SDS011;4156;50.908;6.974;2024-01-25T09:47:02;22.63;;;7.93;;
8230;SDS011;4156;50.908;6.974;2024-01-25T09:49:51;25.63;;;8.80;;
8230;SDS011;4156;50.908;6.974;2024-01-25T09:52:25;28.90;;;8.57;;
8230;SDS011;4156;50.908;6.974;2024-01-25T09:54:56;24.27;;;7.67;;
8230;SDS011;4156;50.908;6.974;2024-01-25T09:57:27;25.70;;;9.83;;
8230;SDS011;4156;50.908;6.974;2024-01-25T09:59:55;28.80;;;8.27;;
8230;SDS011;4156;50.908;6.974;2024-01-25T10:02:21;26.33;;;7.80;;
8230;SDS011;4156;50.908;6.974;2024-01-25T10:04:51;31.00;;;7.77;;
8230;SDS011;4156;50.908;6.974;2024-01-25T10:07:37;29.53;;;8.20;;
8230;SDS011;4156;50.908;6.974;2024-01-25T10:10:03;30.17;;;9.97;;
8230;SDS011;4156;50.908;6.974;2024-01-25T10:12:30;23.93;;;8.37;;
8230;SDS011;4156;50.908;6.974;2024-01-25T10:14:57;24.53;;;8.00;;
8230;SDS011;4156;50.908;6.974;2024-01-25T10:17:23;29.20;;;9.23;;
8230;SDS011;4156;50.908;6.974;2024-01-25T10:19:50;23.60;;;8.07;;
8230;SDS011;4156;50.908;6.974;2024-01-25T10:22:16;23.30;;;8.13;;
8230;SDS011;4156;50.908;6.974;2024-01-25T10:24:42;29.33;;;8.67;;
8230;SDS011;4156;50.908;6.974;2024-01-25T10:27:10;32.67;;;9.87;;
8230;SDS011;4156;50.908;6.974;2024-01-25T10:29:37;29.47;;;8.80;;
8230;SDS011;4156;50.908;6.974;2024-01-25T10:32:04;33.97;;;8.87;;
8230;SDS011;4156;50.908;6.974;2024-01-25T10:34:30;30.07;;;9.83;;
8230;SDS011;4156;50.908;6.974;2024-01-25T10:36:57;33.07;;;8.83;;
8230;SDS011;4156;50.908;6.974;2024-01-25T10:39:24;24.20;;;8.23;;
8230;SDS011;4156;50.908;6.974;2024-01-25T10:41:50;31.00;;;8.23;;
8230;SDS011;4156;50.908;6.974;2024-01-25T10:44:17;31.77;;;8.20;;
8230;SDS011;4156;50.908;6.974;2024-01-25T10:46:46;25.77;;;7.77;;
8230;SDS011;4156;50.908;6.974;2024-01-25T10:49:14;21.57;;;7.20;;
8230;SDS011;4156;50.908;6.974;2024-01-25T10:51:40;26.80;;;8.00;;
8230;SDS011;4156;50.908;6.974;2024-01-25T10:54:10;28.73;;;8.60;;
8230;SDS011;4156;50.908;6.974;2024-01-25T10:56:46;29.23;;;8.83;;
8230;SDS011;4156;50.908;6.974;2024-01-25T10:59:13;34.60;;;8.57;;
8230;SDS011;4156;50.908;6.974;2024-01-25T11:01:45;32.37;;;9.23;;
8230;SDS011;4156;50.908;6.974;2024-01-25T11:04:16;29.70;;;10.60;;
8230;SDS011;4156;50.908;6.974;2024-01-25T11:06:46;25.93;;;8.27;;
8230;SDS011;4156;50.908;6.974;2024-01-25T11:09:19;26.27;;;8.13;;
8230;SDS011;4156;50.908;6.974;2024-01-25T11:11:47;26.70;;;8.33;;
8230;SDS011;4156;50.908;6.974;2024-01-25T11:14:14;25.97;;;7.87;;
8230;SDS011;4156;50.908;6.974;2024-01-25T11:16:41;23.73;;;7.40;;
8230;SDS011;4156;50.908;6.974;2024-01-25T11:19:15;29.40;;;7.93;;
8230;SDS011;4156;50.908;6.974;2024-01-25T11:21:49;26.33;;;7.63;;
8230;SDS011;4156;50.908;6.974;2024-01-25T11:24:15;26.00;;;7.77;;
8230;SDS011;4156;50.908;6.974;2024-01-25T11:26:42;25.63;;;7.50;;
8230;SDS011;4156;50.908;6.974;2024-01-25T11:29:10;25.87;;;8.47;;
8230;SDS011;4156;50.908;6.974;2024-01-25T11:31:36;26.40;;;7.47;;
8230;SDS011;4156;50.908;6.974;2024-01-25T11:34:02;21.33;;;6.27;;
8230;SDS011;4156;50.908;6.974;2024-01-25T11:36:28;30.10;;;6.40;;
8230;SDS011;4156;50.908;6.974;2024-01-25T11:38:54;22.03;;;6.73;;
8230;SDS011;4156;50.908;6.974;2024-01-25T11:41:22;26.07;;;7.07;;
8230;SDS011;4156;50.908;6.974;2024-01-25T11:43:50;23.73;;;6.73;;
8230;SDS011;4156;50.908;6.974;2024-01-25T11:46:16;26.83;;;6.80;;
8230;SDS011;4156;50.908;6.974;2024-01-25T11:48:42;26.47;;;7.40;;
8230;SDS011;4156;50.908;6.974;2024-01-25T11:51:09;21.80;;;6.03;;
8230;SDS011;4156;50.908;6.974;2024-01-25T11:53:38;18.97;;;5.87;;
8230;SDS011;4156;50.908;6.974;2024-01-25T11:56:09;23.97;;;6.33;;
8230;SDS011;4156;50.908;6.974;2024-01-25T11:58:36;27.73;;;7.00;;
8230;SDS011;4156;50.908;6.974;2024-01-25T12:01:03;13.63;;;5.07;;
8230;SDS011;4156;50.908;6.974;2024-01-25T12:03:32;20.03;;;5.97;;
8230;SDS011;4156;50.908;6.974;2024-01-25T12:05:59;25.23;;;6.43;;
8230;SDS011;4156;50.908;6.974;2024-01-25T12:08:25;20.40;;;5.77;;
8230;SDS011;4156;50.908;6.974;2024-01-25T12:11:01;19.70;;;5.40;;
8230;SDS011;4156;50.908;6.974;2024-01-25T12:13:28;20.10;;;5.67;;
8230;SDS011;4156;50.908;6.974;2024-01-25T12:15:57;20.83;;;6.43;;
8230;SDS011;4156;50.908;6.974;2024-01-25T12:18:25;19.67;;;5.20;;
8230;SDS011;4156;50.908;6.974;2024-01-25T12:24:01;24.97;;;5.80;;
8230;SDS011;4156;50.908;6.974;2024-01-25T12:30:13;18.57;;;4.50;;
8230;SDS011;4156;50.908;6.974;2024-01-25T12:32:39;13.27;;;4.10;;
8230;SDS011;4156;50.908;6.974;2024-01-25T12:35:06;15.57;;;5.20;;
8230;SDS011;4156;50.908;6.974;2024-01-25T12:37:33;23.07;;;6.03;;
8230;SDS011;4156;50.908;6.974;2024-01-25T12:40:00;16.23;;;4.47;;
8230;SDS011;4156;50.908;6.974;2024-01-25T12:42:27;15.33;;;4.37;;
8230;SDS011;4156;50.908;6.974;2024-01-25T12:44:54;16.60;;;4.50;;
8230;SDS011;4156;50.908;6.974;2024-01-25T12:47:20;18.43;;;4.27;;
8230;SDS011;4156;50.908;6.974;2024-01-25T12:49:46;20.60;;;5.37;;
8230;SDS011;4156;50.908;6.974;2024-01-25T12:52:13;14.70;;;4.97;;
8230;SDS011;4156;50.908;6.974;2024-01-25T12:54:41;14.07;;;5.87;;
8230;SDS011;4156;50.908;6.974;2024-01-25T12:57:08;16.80;;;4.73;;
8230;SDS011;4156;50.908;6.974;2024-01-25T12:59:35;19.43;;;4.00;;
8230;SDS011;4156;50.908;6.974;2024-01-25T13:02:01;17.27;;;4.43;;
8230;SDS011;4156;50.908;6.974;2024-01-25T13:04:27;15.57;;;4.23;;
8230;SDS011;4156;50.908;6.974;2024-01-25T13:06:54;15.57;;;4.50;;
8230;SDS011;4156;50.908;6.974;2024-01-25T13:09:21;14.07;;;4.77;;
8230;SDS011;4156;50.908;6.974;2024-01-25T13:11:47;11.30;;;3.43;;
8230;SDS011;4156;50.908;6.974;2024-01-25T13:14:13;17.60;;;4.47;;
8230;SDS011;4156;50.908;6.974;2024-01-25T13:16:39;11.60;;;4.53;;
8230;SDS011;4156;50.908;6.974;2024-01-25T13:19:05;21.43;;;4.90;;
8230;SDS011;4156;50.908;6.974;2024-01-25T13:21:31;16.57;;;6.20;;
8230;SDS011;4156;50.908;6.974;2024-01-25T13:23:59;18.83;;;4.63;;
8230;SDS011;4156;50.908;6.974;2024-01-25T13:26:25;19.23;;;4.50;;
8230;SDS011;4156;50.908;6.974;2024-01-25T13:28:51;16.73;;;4.63;;
8230;SDS011;4156;50.908;6.974;2024-01-25T13:31:17;14.70;;;4.77;;
8230;SDS011;4156;50.908;6.974;2024-01-25T13:33:43;16.90;;;4.77;;
8230;SDS011;4156;50.908;6.974;2024-01-25T13:36:10;15.73;;;4.20;;
8230;SDS011;4156;50.908;6.974;2024-01-25T13:38:38;17.27;;;4.50;;
8230;SDS011;4156;50.908;6.974;2024-01-25T13:41:04;17.87;;;4.50;;
8230;SDS011;4156;50.908;6.974;2024-01-25T13:43:30;7.00;;;3.20;;
8230;SDS011;4156;50.908;6.974;2024-01-25T13:45:56;13.00;;;4.20;;
8230;SDS011;4156;50.908;6.974;2024-01-25T13:48:22;16.73;;;4.90;;
8230;SDS011;4156;50.908;6.974;2024-01-25T13:50:48;14.17;;;3.63;;
8230;SDS011;4156;50.908;6.974;2024-01-25T13:53:14;21.50;;;4.87;;
8230;SDS011;4156;50.908;6.974;2024-01-25T13:55:41;17.30;;;4.20;;
8230;SDS011;4156;50.908;6.974;2024-01-25T13:58:07;15.20;;;4.33;;
8230;SDS011;4156;50.908;6.974;2024-01-25T14:00:33;15.83;;;4.13;;
8230;SDS011;4156;50.908;6.974;2024-01-25T14:02:59;18.73;;;4.63;;
8230;SDS011;4156;50.908;6.974;2024-01-25T14:05:25;9.10;;;3.43;;
8230;SDS011;4156;50.908;6.974;2024-01-25T14:07:50;11.27;;;3.57;;
8230;SDS011;4156;50.908;6.974;2024-01-25T14:10:16;15.83;;;4.43;;
8230;SDS011;4156;50.908;6.974;2024-01-25T14:12:44;26.83;;;4.80;;
8230;SDS011;4156;50.908;6.974;2024-01-25T14:15:10;15.87;;;3.80;;
8230;SDS011;4156;50.908;6.974;2024-01-25T14:17:36;13.40;;;3.43;;
8230;SDS011;4156;50.908;6.974;2024-01-25T14:20:03;18.97;;;3.80;;
8230;SDS011;4156;50.908;6.974;2024-01-25T14:22:29;14.93;;;4.27;;
8230;SDS011;4156;50.908;6.974;2024-01-25T14:24:55;11.43;;;3.40;;
8230;SDS011;4156;50.908;6.974;2024-01-25T14:27:21;14.60;;;4.33;;
8230;SDS011;4156;50.908;6.974;2024-01-25T14:29:48;19.53;;;4.10;;
8230;SDS011;4156;50.908;6.974;2024-01-25T14:32:14;20.90;;;4.27;;
8230;SDS011;4156;50.908;6.974;2024-01-25T14:34:40;17.27;;;4.10;;
8230;SDS011;4156;50.908;6.974;2024-01-25T14:37:06;12.87;;;4.03;;
8230;SDS011;4156;50.908;6.974;2024-01-25T14:39:32;18.57;;;4.63;;
8230;SDS011;4156;50.908;6.974;2024-01-25T14:41:58;17.20;;;4.30;;
8230;SDS011;4156;50.908;6.974;2024-01-25T14:44:24;17.87;;;3.97;;
8230;SDS011;4156;50.908;6.974;2024-01-25T14:46:50;16.00;;;4.23;;
8230;SDS011;4156;50.908;6.974;2024-01-25T14:49:16;17.73;;;4.30;;
8230;SDS011;4156;50.908;6.974;2024-01-25T14:51:42;13.43;;;3.90;;
8230;SDS011;4156;50.908;6.974;2024-01-25T14:54:08;17.50;;;4.40;;
8230;SDS011;4156;50.908;6.974;2024-01-25T14:56:34;16.57;;;5.17;;
8230;SDS011;4156;50.908;6.974;2024-01-25T14:58:59;19.50;;;5.27;;
8230;SDS011;4156;50.908;6.974;2024-01-25T15:01:25;14.53;;;4.57;;
8230;SDS011;4156;50.908;6.974;2024-01-25T15:03:55;17.13;;;4.23;;
8230;SDS011;4156;50.908;6.974;2024-01-25T15:06:22;20.13;;;5.43;;